sensor_id;sensor_type;location;lat;lon;timestamp;P1;durP1;ratioP1;P2;durP2;ratioP2
68140;SDS011;54941;52.220;104.306;2023-02-01T00:00:23;10.88;;;3.95;;
68140;SDS011;54941;52.220;104.306;2023-02-01T00:02:49;7.72;;;3.63;;
68140;SDS011;54941;52.220;104.306;2023-02-01T00:05:17;9.57;;;3.95;;
68140;SDS011;54941;52.220;104.306;2023-02-01T00:07:44;12.85;;;5.15;;
68140;SDS011;54941;52.220;104.306;2023-02-01T00:10:13;12.95;;;6.95;;
68140;SDS011;54941;52.220;104.306;2023-02-01T00:12:39;8.77;;;4.57;;
68140;SDS011;54941;52.220;104.306;2023-02-01T00:15:06;12.45;;;6.03;;
68140;SDS011;54941;52.220;104.306;2023-02-01T00:17:33;16.23;;;6.72;;
68140;SDS011;54941;52.220;104.306;2023-02-01T00:19:59;10.93;;;5.20;;
68140;SDS011;54941;52.220;104.306;2023-02-01T00:22:28;7.97;;;4.28;;
68140;SDS011;54941;52.220;104.306;2023-02-01T00:24:54;12.30;;;6.68;;
68140;SDS011;54941;52.220;104.306;2023-02-01T00:27:20;12.15;;;5.75;;
68140;SDS011;54941;52.220;104.306;2023-02-01T00:29:47;16.83;;;7.28;;
68140;SDS011;54941;52.220;104.306;2023-02-01T00:32:13;11.07;;;4.60;;
68140;SDS011;54941;52.220;104.306;2023-02-01T00:34:40;14.00;;;5.38;;
68140;SDS011;54941;52.220;104.306;2023-02-01T00:37:06;13.85;;;5.88;;
68140;SDS011;54941;52.220;104.306;2023-02-01T00:39:34;14.30;;;6.05;;
68140;SDS011;54941;52.220;104.306;2023-02-01T00:42:00;12.32;;;5.45;;
68140;SDS011;54941;52.220;104.306;2023-02-01T00:44:27;12.35;;;5.38;;
68140;SDS011;54941;52.220;104.306;2023-02-01T00:46:53;16.10;;;6.85;;
68140;SDS011;54941;52.220;104.306;2023-02-01T00:49:20;12.35;;;6.25;;
68140;SDS011;54941;52.220;104.306;2023-02-01T00:51:46;17.35;;;8.85;;
68140;SDS011;54941;52.220;104.306;2023-02-01T00:54:12;11.75;;;5.68;;
68140;SDS011;54941;52.220;104.306;2023-02-01T00:56:40;11.82;;;6.57;;
68140;SDS011;54941;52.220;104.306;2023-02-01T00:59:07;15.98;;;6.38;;
68140;SDS011;54941;52.220;104.306;2023-02-01T01:01:37;15.35;;;7.65;;
68140;SDS011;54941;52.220;104.306;2023-02-01T01:04:03;12.02;;;6.43;;
68140;SDS011;54941;52.220;104.306;2023-02-01T01:06:30;13.40;;;4.70;;
68140;SDS011;54941;52.220;104.306;2023-02-01T01:08:59;16.42;;;8.35;;
68140;SDS011;54941;52.220;104.306;2023-02-01T01:11:28;12.20;;;6.22;;
68140;SDS011;54941;52.220;104.306;2023-02-01T01:13:58;12.65;;;6.18;;
68140;SDS011;54941;52.220;104.306;2023-02-01T01:16:25;15.65;;;8.15;;
68140;SDS011;54941;52.220;104.306;2023-02-01T01:18:53;12.40;;;6.40;;
68140;SDS011;54941;52.220;104.306;2023-02-01T01:21:20;17.23;;;6.50;;
68140;SDS011;54941;52.220;104.306;2023-02-01T01:23:46;12.02;;;4.72;;
68140;SDS011;54941;52.220;104.306;2023-02-01T01:26:13;10.82;;;4.45;;
68140;SDS011;54941;52.220;104.306;2023-02-01T01:28:41;16.20;;;6.93;;
68140;SDS011;54941;52.220;104.306;2023-02-01T01:31:09;12.57;;;6.43;;
68140;SDS011;54941;52.220;104.306;2023-02-01T01:33:36;15.65;;;6.28;;
68140;SDS011;54941;52.220;104.306;2023-02-01T01:36:04;15.77;;;7.47;;
68140;SDS011;54941;52.220;104.306;2023-02-01T01:38:30;14.00;;;6.10;;
68140;SDS011;54941;52.220;104.306;2023-02-01T01:40:57;12.85;;;7.63;;
68140;SDS011;54941;52.220;104.306;2023-02-01T01:43:23;17.23;;;7.32;;
68140;SDS011;54941;52.220;104.306;2023-02-01T01:45:49;15.80;;;7.90;;
68140;SDS011;54941;52.220;104.306;2023-02-01T01:48:18;18.58;;;9.15;;
68140;SDS011;54941;52.220;104.306;2023-02-01T01:50:50;19.17;;;9.07;;
68140;SDS011;54941;52.220;104.306;2023-02-01T01:53:22;16.63;;;7.80;;
68140;SDS011;54941;52.220;104.306;2023-02-01T01:55:52;18.55;;;9.75;;
68140;SDS011;54941;52.220;104.306;2023-02-01T01:58:22;14.70;;;8.40;;
68140;SDS011;54941;52.220;104.306;2023-02-01T02:00:50;23.35;;;10.05;;
68140;SDS011;54941;52.220;104.306;2023-02-01T02:03:19;22.75;;;10.98;;
68140;SDS011;54941;52.220;104.306;2023-02-01T02:08:15;24.50;;;12.60;;
68140;SDS011;54941;52.220;104.306;2023-02-01T02:10:42;23.08;;;9.55;;
68140;SDS011;54941;52.220;104.306;2023-02-01T02:13:09;30.38;;;12.63;;
68140;SDS011;54941;52.220;104.306;2023-02-01T02:15:36;21.00;;;10.35;;
68140;SDS011;54941;52.220;104.306;2023-02-01T02:18:09;16.50;;;7.60;;
68140;SDS011;54941;52.220;104.306;2023-02-01T02:21:04;9.00;;;6.07;;
68140;SDS011;54941;52.220;104.306;2023-02-01T02:26:58;12.93;;;6.82;;
68140;SDS011;54941;52.220;104.306;2023-02-01T02:29:36;18.25;;;8.57;;
68140;SDS011;54941;52.220;104.306;2023-02-01T02:32:24;16.00;;;10.07;;
68140;SDS011;54941;52.220;104.306;2023-02-01T02:35:18;16.73;;;6.57;;
68140;SDS011;54941;52.220;104.306;2023-02-01T02:37:53;12.70;;;5.03;;
68140;SDS011;54941;52.220;104.306;2023-02-01T02:40:25;7.45;;;2.65;;
68140;SDS011;54941;52.220;104.306;2023-02-01T02:42:58;8.63;;;4.97;;
68140;SDS011;54941;52.220;104.306;2023-02-01T02:45:33;15.50;;;7.53;;
68140;SDS011;54941;52.220;104.306;2023-02-01T02:48:09;16.13;;;7.35;;
68140;SDS011;54941;52.220;104.306;2023-02-01T02:50:45;14.75;;;8.10;;
68140;SDS011;54941;52.220;104.306;2023-02-01T02:53:17;10.52;;;4.88;;
68140;SDS011;54941;52.220;104.306;2023-02-01T02:55:47;18.75;;;6.68;;
68140;SDS011;54941;52.220;104.306;2023-02-01T02:58:17;16.17;;;9.13;;
68140;SDS011;54941;52.220;104.306;2023-02-01T03:00:46;20.85;;;9.13;;
68140;SDS011;54941;52.220;104.306;2023-02-01T03:03:14;5.93;;;5.20;;
68140;SDS011;54941;52.220;104.306;2023-02-01T03:05:40;13.43;;;7.07;;
68140;SDS011;54941;52.220;104.306;2023-02-01T03:08:13;9.82;;;5.38;;
68140;SDS011;54941;52.220;104.306;2023-02-01T03:10:47;11.18;;;6.25;;
68140;SDS011;54941;52.220;104.306;2023-02-01T03:13:20;12.05;;;6.70;;
68140;SDS011;54941;52.220;104.306;2023-02-01T03:15:53;10.82;;;5.47;;
68140;SDS011;54941;52.220;104.306;2023-02-01T03:18:28;9.30;;;4.70;;
68140;SDS011;54941;52.220;104.306;2023-02-01T03:20:59;18.38;;;6.05;;
68140;SDS011;54941;52.220;104.306;2023-02-01T03:23:32;10.95;;;6.00;;
68140;SDS011;54941;52.220;104.306;2023-02-01T03:26:01;8.60;;;3.47;;
68140;SDS011;54941;52.220;104.306;2023-02-01T03:28:29;12.23;;;3.28;;
68140;SDS011;54941;52.220;104.306;2023-02-01T03:30:58;13.95;;;5.40;;
68140;SDS011;54941;52.220;104.306;2023-02-01T03:33:26;15.13;;;8.75;;
68140;SDS011;54941;52.220;104.306;2023-02-01T03:35:55;14.43;;;6.25;;
68140;SDS011;54941;52.220;104.306;2023-02-01T03:38:32;12.80;;;6.28;;
68140;SDS011;54941;52.220;104.306;2023-02-01T03:41:04;9.00;;;5.20;;
68140;SDS011;54941;52.220;104.306;2023-02-01T03:43:39;13.93;;;5.47;;
68140;SDS011;54941;52.220;104.306;2023-02-01T03:46:16;11.45;;;5.35;;
68140;SDS011;54941;52.220;104.306;2023-02-01T03:48:49;14.68;;;7.07;;
68140;SDS011;54941;52.220;104.306;2023-02-01T03:51:17;14.85;;;6.93;;
68140;SDS011;54941;52.220;104.306;2023-02-01T03:53:47;18.27;;;8.57;;
68140;SDS011;54941;52.220;104.306;2023-02-01T03:56:15;10.02;;;6.20;;
68140;SDS011;54941;52.220;104.306;2023-02-01T03:58:47;16.13;;;6.78;;
68140;SDS011;54941;52.220;104.306;2023-02-01T04:01:13;12.70;;;6.03;;
68140;SDS011;54941;52.220;104.306;2023-02-01T04:03:40;18.67;;;8.98;;
68140;SDS011;54941;52.220;104.306;2023-02-01T04:06:06;14.63;;;7.72;;
68140;SDS011;54941;52.220;104.306;2023-02-01T04:08:32;14.13;;;5.43;;
68140;SDS011;54941;52.220;104.306;2023-02-01T04:11:00;8.82;;;5.40;;
68140;SDS011;54941;52.220;104.306;2023-02-01T04:13:27;15.68;;;7.95;;
68140;SDS011;54941;52.220;104.306;2023-02-01T04:15:53;14.07;;;6.63;;
68140;SDS011;54941;52.220;104.306;2023-02-01T04:18:19;17.40;;;7.50;;
68140;SDS011;54941;52.220;104.306;2023-02-01T04:20:46;13.52;;;6.80;;
68140;SDS011;54941;52.220;104.306;2023-02-01T04:23:12;16.75;;;6.55;;
68140;SDS011;54941;52.220;104.306;2023-02-01T04:25:38;14.63;;;6.82;;
68140;SDS011;54941;52.220;104.306;2023-02-01T04:28:06;14.50;;;8.25;;
68140;SDS011;54941;52.220;104.306;2023-02-01T04:30:33;31.75;;;14.38;;
68140;SDS011;54941;52.220;104.306;2023-02-01T04:32:59;11.05;;;6.53;;
68140;SDS011;54941;52.220;104.306;2023-02-01T04:35:25;9.73;;;4.53;;
68140;SDS011;54941;52.220;104.306;2023-02-01T04:37:52;15.50;;;7.15;;
68140;SDS011;54941;52.220;104.306;2023-02-01T04:40:18;9.27;;;4.07;;
68140;SDS011;54941;52.220;104.306;2023-02-01T04:42:45;4.18;;;1.25;;
68140;SDS011;54941;52.220;104.306;2023-02-01T04:45:12;3.72;;;1.88;;
68140;SDS011;54941;52.220;104.306;2023-02-01T04:47:39;3.80;;;2.17;;
68140;SDS011;54941;52.220;104.306;2023-02-01T04:50:05;3.70;;;1.70;;
68140;SDS011;54941;52.220;104.306;2023-02-01T04:52:32;3.55;;;1.88;;
68140;SDS011;54941;52.220;104.306;2023-02-01T04:54:59;3.90;;;1.92;;
68140;SDS011;54941;52.220;104.306;2023-02-01T04:57:25;3.60;;;1.67;;
68140;SDS011;54941;52.220;104.306;2023-02-01T04:59:52;2.75;;;1.35;;
68140;SDS011;54941;52.220;104.306;2023-02-01T05:02:20;4.28;;;1.45;;
68140;SDS011;54941;52.220;104.306;2023-02-01T05:04:46;4.45;;;1.63;;
68140;SDS011;54941;52.220;104.306;2023-02-01T05:07:12;3.88;;;2.00;;
68140;SDS011;54941;52.220;104.306;2023-02-01T05:09:39;3.33;;;2.10;;
68140;SDS011;54941;52.220;104.306;2023-02-01T05:12:05;3.78;;;2.53;;
68140;SDS011;54941;52.220;104.306;2023-02-01T05:14:32;4.43;;;1.77;;
68140;SDS011;54941;52.220;104.306;2023-02-01T05:16:58;4.25;;;1.83;;
68140;SDS011;54941;52.220;104.306;2023-02-01T05:19:26;5.97;;;2.13;;
68140;SDS011;54941;52.220;104.306;2023-02-01T05:21:52;2.38;;;1.30;;
68140;SDS011;54941;52.220;104.306;2023-02-01T05:24:19;3.45;;;1.80;;
68140;SDS011;54941;52.220;104.306;2023-02-01T05:26:45;3.70;;;1.67;;
68140;SDS011;54941;52.220;104.306;2023-02-01T05:29:15;5.40;;;1.75;;
68140;SDS011;54941;52.220;104.306;2023-02-01T05:31:44;3.85;;;2.13;;
68140;SDS011;54941;52.220;104.306;2023-02-01T05:34:11;4.53;;;2.38;;
68140;SDS011;54941;52.220;104.306;2023-02-01T05:36:39;5.50;;;2.25;;
68140;SDS011;54941;52.220;104.306;2023-02-01T05:39:05;4.85;;;2.28;;
68140;SDS011;54941;52.220;104.306;2023-02-01T05:41:32;4.50;;;1.95;;
68140;SDS011;54941;52.220;104.306;2023-02-01T05:43:58;6.05;;;3.08;;
68140;SDS011;54941;52.220;104.306;2023-02-01T05:46:25;12.70;;;5.82;;
68140;SDS011;54941;52.220;104.306;2023-02-01T05:48:51;13.00;;;6.60;;
68140;SDS011;54941;52.220;104.306;2023-02-01T05:51:17;13.18;;;6.05;;
68140;SDS011;54941;52.220;104.306;2023-02-01T05:53:45;30.45;;;10.63;;
68140;SDS011;54941;52.220;104.306;2023-02-01T05:56:12;16.77;;;8.32;;
68140;SDS011;54941;52.220;104.306;2023-02-01T05:58:38;10.80;;;5.70;;
68140;SDS011;54941;52.220;104.306;2023-02-01T06:01:05;18.85;;;6.88;;
68140;SDS011;54941;52.220;104.306;2023-02-01T06:03:31;11.35;;;5.85;;
68140;SDS011;54941;52.220;104.306;2023-02-01T06:05:57;13.95;;;5.45;;
68140;SDS011;54941;52.220;104.306;2023-02-01T06:08:24;17.92;;;5.43;;
68140;SDS011;54941;52.220;104.306;2023-02-01T06:10:56;8.23;;;5.28;;
68140;SDS011;54941;52.220;104.306;2023-02-01T06:13:23;11.18;;;4.55;;
68140;SDS011;54941;52.220;104.306;2023-02-01T06:15:49;7.78;;;4.22;;
68140;SDS011;54941;52.220;104.306;2023-02-01T06:18:16;15.40;;;7.15;;
68140;SDS011;54941;52.220;104.306;2023-02-01T06:20:42;19.83;;;7.85;;
68140;SDS011;54941;52.220;104.306;2023-02-01T06:23:09;15.52;;;6.50;;
68140;SDS011;54941;52.220;104.306;2023-02-01T06:25:35;13.55;;;5.90;;
68140;SDS011;54941;52.220;104.306;2023-02-01T06:28:03;12.70;;;6.20;;
68140;SDS011;54941;52.220;104.306;2023-02-01T06:30:29;7.38;;;4.50;;
68140;SDS011;54941;52.220;104.306;2023-02-01T06:32:56;12.35;;;4.90;;
68140;SDS011;54941;52.220;104.306;2023-02-01T06:35:22;7.22;;;3.00;;
68140;SDS011;54941;52.220;104.306;2023-02-01T06:37:48;7.70;;;3.30;;
68140;SDS011;54941;52.220;104.306;2023-02-01T06:40:15;6.88;;;3.22;;
68140;SDS011;54941;52.220;104.306;2023-02-01T06:42:41;8.13;;;4.55;;
68140;SDS011;54941;52.220;104.306;2023-02-01T06:45:09;12.52;;;6.40;;
68140;SDS011;54941;52.220;104.306;2023-02-01T06:47:36;6.72;;;4.30;;
68140;SDS011;54941;52.220;104.306;2023-02-01T06:50:03;9.85;;;4.57;;
68140;SDS011;54941;52.220;104.306;2023-02-01T06:52:29;11.18;;;5.03;;
68140;SDS011;54941;52.220;104.306;2023-02-01T06:54:56;9.45;;;4.68;;
68140;SDS011;54941;52.220;104.306;2023-02-01T06:57:22;8.93;;;4.20;;
68140;SDS011;54941;52.220;104.306;2023-02-01T06:59:49;11.25;;;4.53;;
68140;SDS011;54941;52.220;104.306;2023-02-01T07:02:17;10.98;;;5.32;;
68140;SDS011;54941;52.220;104.306;2023-02-01T07:04:43;13.95;;;6.80;;
68140;SDS011;54941;52.220;104.306;2023-02-01T07:07:09;15.93;;;7.47;;
68140;SDS011;54941;52.220;104.306;2023-02-01T07:09:36;20.98;;;9.50;;
68140;SDS011;54941;52.220;104.306;2023-02-01T07:12:02;22.73;;;9.15;;
68140;SDS011;54941;52.220;104.306;2023-02-01T07:14:29;18.20;;;8.88;;
68140;SDS011;54941;52.220;104.306;2023-02-01T07:16:55;20.00;;;9.85;;
68140;SDS011;54941;52.220;104.306;2023-02-01T07:19:23;20.38;;;10.23;;
68140;SDS011;54941;52.220;104.306;2023-02-01T07:21:49;12.95;;;5.57;;
68140;SDS011;54941;52.220;104.306;2023-02-01T07:24:16;10.95;;;6.60;;
68140;SDS011;54941;52.220;104.306;2023-02-01T07:26:42;11.50;;;5.60;;
68140;SDS011;54941;52.220;104.306;2023-02-01T07:29:09;8.77;;;4.10;;
68140;SDS011;54941;52.220;104.306;2023-02-01T07:31:35;10.30;;;3.45;;
68140;SDS011;54941;52.220;104.306;2023-02-01T07:34:01;11.40;;;4.60;;
68140;SDS011;54941;52.220;104.306;2023-02-01T07:36:29;7.07;;;3.95;;
68140;SDS011;54941;52.220;104.306;2023-02-01T07:38:56;9.13;;;4.72;;
68140;SDS011;54941;52.220;104.306;2023-02-01T07:41:23;7.32;;;3.88;;
68140;SDS011;54941;52.220;104.306;2023-02-01T07:43:51;7.53;;;4.00;;
68140;SDS011;54941;52.220;104.306;2023-02-01T07:46:18;3.45;;;2.03;;
68140;SDS011;54941;52.220;104.306;2023-02-01T07:48:45;8.38;;;3.97;;
68140;SDS011;54941;52.220;104.306;2023-02-01T07:51:12;4.82;;;2.22;;
68140;SDS011;54941;52.220;104.306;2023-02-01T07:53:40;5.88;;;3.17;;
68140;SDS011;54941;52.220;104.306;2023-02-01T07:56:10;8.35;;;4.00;;
68140;SDS011;54941;52.220;104.306;2023-02-01T07:58:37;5.60;;;2.08;;
68140;SDS011;54941;52.220;104.306;2023-02-01T08:01:03;10.18;;;3.92;;
68140;SDS011;54941;52.220;104.306;2023-02-01T08:03:30;8.40;;;4.40;;
68140;SDS011;54941;52.220;104.306;2023-02-01T08:05:56;8.25;;;4.50;;
68140;SDS011;54941;52.220;104.306;2023-02-01T08:08:23;9.55;;;5.00;;
68140;SDS011;54941;52.220;104.306;2023-02-01T08:10:51;10.15;;;4.72;;
68140;SDS011;54941;52.220;104.306;2023-02-01T08:13:22;16.42;;;5.80;;
68140;SDS011;54941;52.220;104.306;2023-02-01T08:15:48;8.23;;;4.18;;
68140;SDS011;54941;52.220;104.306;2023-02-01T08:18:14;12.05;;;4.43;;
68140;SDS011;54941;52.220;104.306;2023-02-01T08:20:41;11.13;;;4.18;;
68140;SDS011;54941;52.220;104.306;2023-02-01T08:23:07;8.98;;;3.90;;
68140;SDS011;54941;52.220;104.306;2023-02-01T08:25:34;8.73;;;4.28;;
68140;SDS011;54941;52.220;104.306;2023-02-01T08:28:02;10.43;;;4.30;;
68140;SDS011;54941;52.220;104.306;2023-02-01T08:30:28;22.20;;;8.07;;
68140;SDS011;54941;52.220;104.306;2023-02-01T08:32:54;33.50;;;14.07;;
68140;SDS011;54941;52.220;104.306;2023-02-01T08:35:21;74.30;;;32.53;;
68140;SDS011;54941;52.220;104.306;2023-02-01T08:37:48;77.78;;;32.75;;
68140;SDS011;54941;52.220;104.306;2023-02-01T08:40:16;81.80;;;34.30;;
68140;SDS011;54941;52.220;104.306;2023-02-01T08:42:42;84.32;;;33.95;;
68140;SDS011;54941;52.220;104.306;2023-02-01T08:45:10;85.65;;;36.72;;
68140;SDS011;54941;52.220;104.306;2023-02-01T08:47:37;91.18;;;38.60;;
68140;SDS011;54941;52.220;104.306;2023-02-01T08:50:03;86.25;;;36.50;;
68140;SDS011;54941;52.220;104.306;2023-02-01T08:52:30;75.18;;;32.97;;
68140;SDS011;54941;52.220;104.306;2023-02-01T08:54:57;78.55;;;36.65;;
68140;SDS011;54941;52.220;104.306;2023-02-01T08:57:23;76.18;;;35.53;;
68140;SDS011;54941;52.220;104.306;2023-02-01T08:59:49;67.75;;;27.98;;
68140;SDS011;54941;52.220;104.306;2023-02-01T09:02:18;78.85;;;36.92;;
68140;SDS011;54941;52.220;104.306;2023-02-01T09:04:44;88.88;;;37.10;;
68140;SDS011;54941;52.220;104.306;2023-02-01T09:07:11;74.45;;;30.63;;
68140;SDS011;54941;52.220;104.306;2023-02-01T09:09:37;77.32;;;34.58;;
68140;SDS011;54941;52.220;104.306;2023-02-01T09:12:04;81.38;;;31.90;;
68140;SDS011;54941;52.220;104.306;2023-02-01T09:14:30;76.40;;;30.23;;
68140;SDS011;54941;52.220;104.306;2023-02-01T09:16:57;79.55;;;30.02;;
68140;SDS011;54941;52.220;104.306;2023-02-01T09:19:25;64.72;;;28.40;;
68140;SDS011;54941;52.220;104.306;2023-02-01T09:21:51;64.47;;;26.27;;
68140;SDS011;54941;52.220;104.306;2023-02-01T09:24:18;71.60;;;26.23;;
68140;SDS011;54941;52.220;104.306;2023-02-01T09:26:44;68.88;;;29.10;;
68140;SDS011;54941;52.220;104.306;2023-02-01T09:29:10;43.65;;;21.92;;
68140;SDS011;54941;52.220;104.306;2023-02-01T09:31:37;61.75;;;26.40;;
68140;SDS011;54941;52.220;104.306;2023-02-01T09:34:04;56.83;;;25.92;;
68140;SDS011;54941;52.220;104.306;2023-02-01T09:36:33;62.80;;;26.58;;
68140;SDS011;54941;52.220;104.306;2023-02-01T09:39:00;59.80;;;26.35;;
68140;SDS011;54941;52.220;104.306;2023-02-01T09:41:32;54.50;;;23.48;;
68140;SDS011;54941;52.220;104.306;2023-02-01T09:44:09;61.63;;;27.30;;
68140;SDS011;54941;52.220;104.306;2023-02-01T09:46:42;68.25;;;29.92;;
68140;SDS011;54941;52.220;104.306;2023-02-01T09:49:10;83.50;;;31.40;;
68140;SDS011;54941;52.220;104.306;2023-02-01T09:51:42;69.85;;;30.08;;
68140;SDS011;54941;52.220;104.306;2023-02-01T09:54:13;64.95;;;27.30;;
68140;SDS011;54941;52.220;104.306;2023-02-01T09:56:44;64.30;;;25.17;;
68140;SDS011;54941;52.220;104.306;2023-02-01T09:59:17;55.55;;;25.90;;
68140;SDS011;54941;52.220;104.306;2023-02-01T10:01:54;62.60;;;23.90;;
68140;SDS011;54941;52.220;104.306;2023-02-01T10:04:21;62.28;;;24.25;;
68140;SDS011;54941;52.220;104.306;2023-02-01T10:06:52;57.38;;;24.50;;
68140;SDS011;54941;52.220;104.306;2023-02-01T10:09:32;59.10;;;26.25;;
68140;SDS011;54941;52.220;104.306;2023-02-01T10:12:38;47.80;;;21.73;;
68140;SDS011;54941;52.220;104.306;2023-02-01T10:15:21;66.20;;;28.42;;
68140;SDS011;54941;52.220;104.306;2023-02-01T10:17:59;84.50;;;32.10;;
68140;SDS011;54941;52.220;104.306;2023-02-01T10:20:44;38.78;;;20.08;;
68140;SDS011;54941;52.220;104.306;2023-02-01T10:23:24;61.20;;;26.40;;
68140;SDS011;54941;52.220;104.306;2023-02-01T10:26:12;53.50;;;21.85;;
68140;SDS011;54941;52.220;104.306;2023-02-01T10:28:44;53.53;;;23.10;;
68140;SDS011;54941;52.220;104.306;2023-02-01T10:31:15;47.35;;;21.48;;
68140;SDS011;54941;52.220;104.306;2023-02-01T10:33:43;49.17;;;22.30;;
68140;SDS011;54941;52.220;104.306;2023-02-01T10:36:13;47.47;;;21.48;;
68140;SDS011;54941;52.220;104.306;2023-02-01T10:38:43;41.42;;;17.13;;
68140;SDS011;54941;52.220;104.306;2023-02-01T10:41:11;64.13;;;27.63;;
68140;SDS011;54941;52.220;104.306;2023-02-01T10:43:40;56.95;;;25.17;;
68140;SDS011;54941;52.220;104.306;2023-02-01T10:46:07;47.05;;;22.35;;
68140;SDS011;54941;52.220;104.306;2023-02-01T10:48:34;56.15;;;23.85;;
68140;SDS011;54941;52.220;104.306;2023-02-01T10:51:02;25.65;;;11.82;;
68140;SDS011;54941;52.220;104.306;2023-02-01T10:56:09;40.70;;;15.80;;
68140;SDS011;54941;52.220;104.306;2023-02-01T10:58:42;68.85;;;27.23;;
68140;SDS011;54941;52.220;104.306;2023-02-01T11:01:10;34.33;;;16.17;;
68140;SDS011;54941;52.220;104.306;2023-02-01T11:03:43;122.63;;;51.15;;
68140;SDS011;54941;52.220;104.306;2023-02-01T11:06:13;163.93;;;58.83;;
68140;SDS011;54941;52.220;104.306;2023-02-01T11:08:48;129.68;;;45.30;;
68140;SDS011;54941;52.220;104.306;2023-02-01T11:11:17;71.53;;;26.95;;
68140;SDS011;54941;52.220;104.306;2023-02-01T11:13:44;49.28;;;19.23;;
68140;SDS011;54941;52.220;104.306;2023-02-01T11:16:18;33.08;;;15.85;;
68140;SDS011;54941;52.220;104.306;2023-02-01T11:18:45;22.88;;;13.05;;
68140;SDS011;54941;52.220;104.306;2023-02-01T11:21:18;37.97;;;15.60;;
68140;SDS011;54941;52.220;104.306;2023-02-01T11:23:46;35.10;;;14.60;;
68140;SDS011;54941;52.220;104.306;2023-02-01T11:26:14;33.22;;;15.77;;
68140;SDS011;54941;52.220;104.306;2023-02-01T11:28:58;32.38;;;14.27;;
68140;SDS011;54941;52.220;104.306;2023-02-01T11:31:30;35.08;;;15.48;;
68140;SDS011;54941;52.220;104.306;2023-02-01T11:34:00;38.22;;;12.88;;
68140;SDS011;54941;52.220;104.306;2023-02-01T11:36:33;16.35;;;9.32;;
68140;SDS011;54941;52.220;104.306;2023-02-01T11:39:10;15.35;;;9.00;;
68140;SDS011;54941;52.220;104.306;2023-02-01T11:41:54;16.48;;;7.43;;
68140;SDS011;54941;52.220;104.306;2023-02-01T11:44:26;17.02;;;6.78;;
68140;SDS011;54941;52.220;104.306;2023-02-01T11:47:06;14.50;;;7.72;;
68140;SDS011;54941;52.220;104.306;2023-02-01T11:49:47;20.60;;;6.60;;
68140;SDS011;54941;52.220;104.306;2023-02-01T11:52:16;17.10;;;8.35;;
68140;SDS011;54941;52.220;104.306;2023-02-01T11:54:56;11.88;;;5.28;;
68140;SDS011;54941;52.220;104.306;2023-02-01T11:57:43;13.35;;;5.55;;
68140;SDS011;54941;52.220;104.306;2023-02-01T12:00:34;10.13;;;3.15;;
68140;SDS011;54941;52.220;104.306;2023-02-01T12:03:15;6.07;;;3.15;;
68140;SDS011;54941;52.220;104.306;2023-02-01T12:06:06;7.97;;;3.67;;
68140;SDS011;54941;52.220;104.306;2023-02-01T12:11:40;7.95;;;3.60;;
68140;SDS011;54941;52.220;104.306;2023-02-01T12:14:19;7.63;;;3.58;;
68140;SDS011;54941;52.220;104.306;2023-02-01T12:17:00;7.18;;;3.22;;
68140;SDS011;54941;52.220;104.306;2023-02-01T12:19:48;3.80;;;1.95;;
68140;SDS011;54941;52.220;104.306;2023-02-01T12:22:33;6.20;;;2.47;;
68140;SDS011;54941;52.220;104.306;2023-02-01T12:25:21;4.15;;;2.75;;
68140;SDS011;54941;52.220;104.306;2023-02-01T12:33:48;6.00;;;2.15;;
68140;SDS011;54941;52.220;104.306;2023-02-01T12:36:25;9.63;;;3.00;;
68140;SDS011;54941;52.220;104.306;2023-02-01T12:39:00;6.32;;;3.92;;
68140;SDS011;54941;52.220;104.306;2023-02-01T12:41:46;6.65;;;3.45;;
68140;SDS011;54941;52.220;104.306;2023-02-01T12:44:18;6.50;;;2.80;;
68140;SDS011;54941;52.220;104.306;2023-02-01T12:46:52;9.80;;;4.22;;
68140;SDS011;54941;52.220;104.306;2023-02-01T12:49:27;7.63;;;3.80;;
68140;SDS011;54941;52.220;104.306;2023-02-01T12:52:00;7.18;;;3.22;;
68140;SDS011;54941;52.220;104.306;2023-02-01T12:54:31;3.97;;;3.33;;
68140;SDS011;54941;52.220;104.306;2023-02-01T12:57:02;7.43;;;2.80;;
68140;SDS011;54941;52.220;104.306;2023-02-01T12:59:33;9.30;;;2.55;;
68140;SDS011;54941;52.220;104.306;2023-02-01T13:02:04;5.47;;;3.00;;
68140;SDS011;54941;52.220;104.306;2023-02-01T13:04:42;6.88;;;1.50;;
68140;SDS011;54941;52.220;104.306;2023-02-01T13:07:21;5.95;;;3.05;;
68140;SDS011;54941;52.220;104.306;2023-02-01T13:09:55;4.80;;;1.92;;
68140;SDS011;54941;52.220;104.306;2023-02-01T13:12:30;3.15;;;1.55;;
68140;SDS011;54941;52.220;104.306;2023-02-01T13:15:02;6.90;;;3.70;;
68140;SDS011;54941;52.220;104.306;2023-02-01T13:17:36;6.82;;;2.38;;
68140;SDS011;54941;52.220;104.306;2023-02-01T13:20:07;3.38;;;1.25;;
68140;SDS011;54941;52.220;104.306;2023-02-01T13:22:43;2.60;;;1.40;;
68140;SDS011;54941;52.220;104.306;2023-02-01T13:25:12;8.95;;;2.63;;
68140;SDS011;54941;52.220;104.306;2023-02-01T13:27:39;4.72;;;1.80;;
68140;SDS011;54941;52.220;104.306;2023-02-01T13:30:10;6.10;;;2.63;;
68140;SDS011;54941;52.220;104.306;2023-02-01T13:32:59;8.50;;;3.00;;
68140;SDS011;54941;52.220;104.306;2023-02-01T13:35:41;5.53;;;2.33;;
68140;SDS011;54941;52.220;104.306;2023-02-01T13:41:28;5.65;;;2.35;;
68140;SDS011;54941;52.220;104.306;2023-02-01T13:43:58;5.43;;;2.90;;
68140;SDS011;54941;52.220;104.306;2023-02-01T13:48:54;7.05;;;2.70;;
68140;SDS011;54941;52.220;104.306;2023-02-01T13:51:33;6.82;;;2.88;;
68140;SDS011;54941;52.220;104.306;2023-02-01T13:54:03;7.22;;;3.50;;
68140;SDS011;54941;52.220;104.306;2023-02-01T13:56:38;8.77;;;3.15;;
68140;SDS011;54941;52.220;104.306;2023-02-01T14:08:39;3.90;;;2.20;;
68140;SDS011;54941;52.220;104.306;2023-02-01T14:11:08;7.57;;;3.00;;
68140;SDS011;54941;52.220;104.306;2023-02-01T14:23:11;7.63;;;3.13;;
68140;SDS011;54941;52.220;104.306;2023-02-01T14:25:41;6.35;;;2.95;;
68140;SDS011;54941;52.220;104.306;2023-02-01T14:28:12;3.17;;;2.65;;
68140;SDS011;54941;52.220;104.306;2023-02-01T14:30:50;6.40;;;2.15;;
68140;SDS011;54941;52.220;104.306;2023-02-01T14:33:18;4.55;;;2.42;;
68140;SDS011;54941;52.220;104.306;2023-02-01T14:35:55;7.50;;;2.92;;
68140;SDS011;54941;52.220;104.306;2023-02-01T14:38:32;8.55;;;3.50;;
68140;SDS011;54941;52.220;104.306;2023-02-01T14:44:22;9.38;;;4.75;;
68140;SDS011;54941;52.220;104.306;2023-02-01T14:49:56;6.55;;;3.00;;
68140;SDS011;54941;52.220;104.306;2023-02-01T14:52:30;6.30;;;3.00;;
68140;SDS011;54941;52.220;104.306;2023-02-01T14:57:30;8.80;;;3.97;;
68140;SDS011;54941;52.220;104.306;2023-02-01T15:00:06;6.63;;;3.35;;
68140;SDS011;54941;52.220;104.306;2023-02-01T15:02:42;6.18;;;2.97;;
68140;SDS011;54941;52.220;104.306;2023-02-01T15:05:22;3.97;;;1.92;;
68140;SDS011;54941;52.220;104.306;2023-02-01T15:07:51;7.82;;;3.08;;
68140;SDS011;54941;52.220;104.306;2023-02-01T15:10:18;4.35;;;2.97;;
68140;SDS011;54941;52.220;104.306;2023-02-01T15:12:48;10.38;;;2.83;;
68140;SDS011;54941;52.220;104.306;2023-02-01T15:15:16;4.93;;;2.53;;
68140;SDS011;54941;52.220;104.306;2023-02-01T15:17:49;5.78;;;2.47;;